Time;durP1;ratioP1;P1;durP2;ratioP2;P2;SDS_P1;SDS_P2;PMS_P1;PMS_P2;Temp;Humidity;BMP_temperature;BMP_pressure;BME280_temperature;BME280_humidity;BME280_pressure;Samples;Min_cycle;Max_cycle;Signal;HPM_P1;HPM_P2
2022/08/01 00:01:57;;;;;;;12.00;7.65;;;27.60;99.90;;;;;;4125770;28;20481;-71
2022/08/01 00:04:02;;;;;;;8.13;6.85;;;27.70;99.90;;;;;;4125346;28;20057;-71
2022/08/01 00:06:06;;;;;;;8.50;6.85;;;27.70;99.90;;;;;;4125545;28;20085;-70
2022/08/01 00:08:13;;;;;;;7.70;6.57;;;27.70;99.90;;;;;;4125264;28;20109;-72
2022/08/01 00:10:17;;;;;;;8.20;7.00;;;27.80;99.90;;;;;;4125082;28;20528;-71
2022/08/01 00:12:22;;;;;;;9.45;6.88;;;27.80;99.90;;;;;;4125912;28;20563;-70
2022/08/01 00:14:28;;;;;;;9.70;6.50;;;27.80;99.90;;;;;;4125744;28;20412;-71
2022/08/01 00:16:35;;;;;;;8.50;6.47;;;27.70;99.90;;;;;;4124085;28;20244;-71
2022/08/01 00:18:40;;;;;;;8.70;6.35;;;27.80;99.90;;;;;;4118124;28;20046;-72
2022/08/01 00:20:44;;;;;;;8.43;6.60;;;27.80;99.90;;;;;;4117503;28;20517;-71
2022/08/01 00:22:49;;;;;;;8.23;6.65;;;27.90;99.90;;;;;;4109118;28;20047;-71
2022/08/01 00:24:53;;;;;;;9.27;6.28;;;27.90;99.90;;;;;;4116555;28;20043;-70
2022/08/01 00:27:02;;;;;;;7.60;5.72;;;27.90;99.90;;;;;;4141227;28;20049;-69
2022/08/01 00:29:08;;;;;;;7.65;5.80;;;28.00;99.90;;;;;;4128147;28;20125;-70
2022/08/01 00:31:33;;;;;;;9.38;6.20;;;28.00;99.90;;;;;;4111560;28;20324;-70
2022/08/01 00:33:41;;;;;;;8.00;6.20;;;28.10;99.90;;;;;;4112055;28;20058;-72
2022/08/01 00:35:46;;;;;;;5.85;5.20;;;28.20;99.90;;;;;;4121661;28;20057;-71
2022/08/01 00:37:51;;;;;;;6.13;5.53;;;28.20;99.90;;;;;;4128198;28;20093;-71
2022/08/01 00:39:58;;;;;;;6.00;5.03;;;28.30;99.90;;;;;;4128285;28;20497;-71
2022/08/01 00:42:07;;;;;;;8.32;5.65;;;28.30;99.90;;;;;;4127633;28;20368;-72
2022/08/01 00:44:11;;;;;;;7.40;5.32;;;28.40;99.90;;;;;;4127126;28;20493;-72
2022/08/01 00:46:20;;;;;;;6.13;5.53;;;28.40;99.90;;;;;;4128528;28;20081;-70
2022/08/01 00:48:24;;;;;;;6.55;5.72;;;28.40;99.90;;;;;;4145635;28;20050;-70
2022/08/01 00:50:29;;;;;;;6.07;5.47;;;28.50;99.90;;;;;;4147517;28;20527;-71
2022/08/01 00:52:35;;;;;;;7.07;5.38;;;28.50;99.90;;;;;;4146729;28;20183;-70
2022/08/01 00:54:40;;;;;;;7.50;5.22;;;28.60;99.90;;;;;;4147376;28;20054;-70
2022/08/01 00:56:44;;;;;;;8.40;5.45;;;28.70;99.90;;;;;;4145288;28;20587;-70
2022/08/01 00:58:49;;;;;;;6.22;5.35;;;28.80;99.90;;;;;;4131194;28;20057;-71
2022/08/01 01:00:55;;;;;;;6.25;5.18;;;28.80;99.90;;;;;;4131072;28;20560;-69
2022/08/01 01:03:01;;;;;;;7.35;5.60;;;28.80;99.90;;;;;;4131280;28;20043;-70
2022/08/01 01:05:09;;;;;;;6.40;5.80;;;28.80;99.90;;;;;;4130814;28;20047;-70
2022/08/01 01:07:42;;;;;;;7.15;5.10;;;28.90;99.90;;;;;;4116747;28;20153;-71
2022/08/01 01:10:00;;;;;;;6.35;5.45;;;28.90;99.90;;;;;;4129721;28;20525;-70
2022/08/01 01:12:37;;;;;;;6.63;5.85;;;28.90;99.90;;;;;;4130730;28;20051;-70
2022/08/01 01:15:07;;;;;;;7.50;5.90;;;28.80;99.90;;;;;;4130746;28;20125;-71
2022/08/01 01:17:15;;;;;;;6.88;5.70;;;28.80;99.90;;;;;;4124529;28;20039;-71
2022/08/01 01:19:35;;;;;;;8.10;6.35;;;28.70;99.90;;;;;;4118133;28;20081;-71
2022/08/01 01:21:59;;;;;;;6.80;6.10;;;28.80;99.90;;;;;;4128043;28;20049;-70
2022/08/01 01:24:31;;;;;;;7.55;5.57;;;28.70;99.90;;;;;;4128313;28;20177;-70
2022/08/01 01:26:57;;;;;;;8.23;5.75;;;28.70;99.90;;;;;;4126045;28;20058;-71
2022/08/01 01:29:31;;;;;;;6.70;5.32;;;28.70;99.90;;;;;;4125340;28;20429;-70
2022/08/01 01:32:07;;;;;;;7.43;5.95;;;28.70;99.90;;;;;;4138465;28;20089;-70
2022/08/01 01:34:13;;;;;;;6.72;5.60;;;28.70;99.90;;;;;;4110808;28;20617;-70
2022/08/01 01:36:19;;;;;;;7.43;6.70;;;28.70;99.90;;;;;;4108134;28;20541;-70
2022/08/01 01:38:29;;;;;;;7.55;6.70;;;28.70;99.90;;;;;;4108813;28;20141;-70
2022/08/01 01:40:34;;;;;;;6.85;6.07;;;28.60;99.90;;;;;;4093609;28;20095;-70
2022/08/01 01:42:40;;;;;;;8.02;6.53;;;28.60;99.90;;;;;;4095447;28;20047;-70
2022/08/01 01:44:47;;;;;;;6.57;5.97;;;28.70;99.90;;;;;;4109380;28;20047;-70
2022/08/01 01:46:51;;;;;;;7.75;6.60;;;28.60;99.90;;;;;;4109121;28;20054;-70
2022/08/01 01:48:57;;;;;;;13.10;10.40;;;28.60;99.90;;;;;;4109011;28;20062;-70
2022/08/01 01:51:04;;;;;;;10.55;8.82;;;28.60;99.90;;;;;;4093058;29;20091;-70
2022/08/01 01:53:10;;;;;;;8.55;6.68;;;28.60;99.90;;;;;;4082778;28;20724;-71
2022/08/01 01:55:19;;;;;;;7.22;6.53;;;28.60;99.90;;;;;;4108963;28;20109;-71
2022/08/01 01:57:26;;;;;;;8.32;7.10;;;28.60;99.90;;;;;;4108946;28;20606;-69
2022/08/01 01:59:32;;;;;;;7.53;6.28;;;28.60;99.90;;;;;;4077569;29;20081;-69
2022/08/01 02:01:38;;;;;;;8.27;6.57;;;28.60;99.90;;;;;;4108774;28;20148;-69
2022/08/01 02:04:04;;;;;;;8.93;6.10;;;28.60;99.90;;;;;;4076922;29;20043;-70
2022/08/01 02:06:09;;;;;;;6.50;5.82;;;28.60;99.90;;;;;;4076693;29;20422;-69
2022/08/01 02:08:15;;;;;;;7.28;5.80;;;28.60;99.90;;;;;;4077431;29;20138;-70
2022/08/01 02:10:22;;;;;;;7.80;6.43;;;28.60;99.90;;;;;;4102388;28;20129;-69
2022/08/01 02:12:33;;;;;;;7.07;6.18;;;28.60;99.90;;;;;;4109064;28;20252;-69
2022/08/01 02:14:39;;;;;;;7.32;6.40;;;28.60;99.90;;;;;;4108792;28;20076;-69
2022/08/01 02:16:49;;;;;;;7.13;6.05;;;28.60;99.90;;;;;;4108674;28;20134;-69
2022/08/01 02:18:53;;;;;;;6.68;5.60;;;28.50;99.90;;;;;;4108685;28;20085;-69
2022/08/01 02:21:00;;;;;;;6.25;5.65;;;28.50;99.90;;;;;;4108047;28;20043;-69
2022/08/01 02:23:13;;;;;;;6.40;5.65;;;28.50;99.90;;;;;;4124579;28;20053;-69
2022/08/01 02:25:27;;;;;;;6.80;6.20;;;28.60;99.90;;;;;;4108393;28;20564;-69
2022/08/01 02:27:37;;;;;;;6.63;6.03;;;28.50;99.90;;;;;;4108777;28;20043;-69
2022/08/01 02:30:05;;;;;;;9.43;5.78;;;28.60;99.90;;;;;;4108881;28;20043;-69
2022/08/01 02:32:17;;;;;;;7.10;6.30;;;28.60;99.90;;;;;;4108384;28;20050;-69
2022/08/01 02:34:23;;;;;;;7.03;6.10;;;28.60;99.90;;;;;;4108800;28;20059;-68
2022/08/01 02:36:30;;;;;;;6.53;5.93;;;28.60;99.90;;;;;;4126366;28;20054;-69
2022/08/01 02:38:37;;;;;;;7.55;6.70;;;28.70;99.90;;;;;;4125607;28;20053;-69
2022/08/01 02:40:45;;;;;;;6.65;5.47;;;28.60;99.90;;;;;;4108531;28;20162;-69
2022/08/01 02:42:52;;;;;;;6.22;5.63;;;28.60;99.90;;;;;;4125438;28;20528;-69
2022/08/01 02:44:57;;;;;;;6.00;5.20;;;28.70;99.90;;;;;;4125729;28;20425;-69
2022/08/01 02:47:02;;;;;;;6.63;5.32;;;28.70;99.90;;;;;;4124379;28;20054;-68
2022/08/01 02:49:08;;;;;;;6.40;5.38;;;28.80;99.90;;;;;;4125885;28;20417;-69
2022/08/01 02:51:12;;;;;;;5.88;5.18;;;28.80;99.90;;;;;;4123932;28;20042;-69
2022/08/01 02:53:19;;;;;;;7.03;6.13;;;28.90;99.90;;;;;;4125753;28;20054;-69
2022/08/01 02:55:47;;;;;;;9.43;8.63;;;28.90;99.90;;;;;;4122203;28;20058;-71
2022/08/01 02:57:52;;;;;;;9.55;7.03;;;28.90;99.90;;;;;;4121083;28;20762;-68
2022/08/01 03:00:05;;;;;;;1999.90;999.90;;;29.00;99.90;;;;;;4122937;28;20050;-69
2022/08/01 03:02:13;;;;;;;1999.90;999.90;;;29.00;99.90;;;;;;4121073;28;20050;-69
2022/08/01 03:04:19;;;;;;;1999.90;999.90;;;29.10;99.90;;;;;;4122293;28;20055;-68
2022/08/01 03:06:24;;;;;;;1737.50;999.90;;;29.20;99.90;;;;;;4122626;28;20073;-70
2022/08/01 03:08:31;;;;;;;1447.20;999.90;;;29.20;99.90;;;;;;4120251;28;20587;-70
2022/08/01 03:10:37;;;;;;;629.25;572.75;;;29.20;99.90;;;;;;4122725;28;20054;-70
2022/08/01 03:12:42;;;;;;;796.85;722.42;;;29.20;99.90;;;;;;4122378;28;20046;-70
2022/08/01 03:14:49;;;;;;;83.30;76.57;;;29.20;99.90;;;;;;4104972;28;20113;-70
2022/08/01 03:16:54;;;;;;;253.27;232.10;;;29.30;99.90;;;;;;4122555;28;20089;-70
2022/08/01 03:19:01;;;;;;;73.18;67.15;;;29.30;99.90;;;;;;4122700;28;20511;-69
2022/08/01 03:21:07;;;;;;;20.85;19.02;;;29.30;99.90;;;;;;4122570;28;20484;-71
2022/08/01 03:23:12;;;;;;;33.22;30.52;;;29.40;99.90;;;;;;4120103;28;20042;-70
2022/08/01 03:25:19;;;;;;;17.88;16.45;;;29.50;99.90;;;;;;4123322;28;20264;-69
2022/08/01 03:27:26;;;;;;;12.23;11.13;;;29.60;99.90;;;;;;4123776;28;20046;-69
2022/08/01 03:29:31;;;;;;;6.65;5.63;;;29.60;99.90;;;;;;4121119;28;20053;-69
2022/08/01 03:31:42;;;;;;;6.88;6.15;;;29.70;99.90;;;;;;4107311;28;20066;-69
2022/08/01 03:33:48;;;;;;;6.03;5.25;;;29.80;99.90;;;;;;4124706;28;20065;-70
2022/08/01 03:35:54;;;;;;;7.10;4.93;;;29.90;99.90;;;;;;4123721;28;20054;-70
2022/08/01 03:38:00;;;;;;;6.05;4.97;;;30.00;99.90;;;;;;4126305;28;20042;-69
2022/08/01 03:40:41;;;;;;;5.43;4.93;;;30.00;99.90;;;;;;4125610;28;20058;-69
2022/08/01 03:42:48;;;;;;;6.20;5.15;;;30.10;99.90;;;;;;4126068;28;20112;-69
2022/08/01 03:44:59;;;;;;;5.55;5.05;;;30.10;99.90;;;;;;4151065;28;20053;-70
2022/08/01 03:47:08;;;;;;;5.45;4.95;;;30.20;99.90;;;;;;4115433;28;20145;-70
2022/08/01 03:49:17;;;;;;;5.60;4.97;;;30.20;99.90;;;;;;4121762;28;20544;-70
2022/08/01 03:51:23;;;;;;;5.32;4.82;;;30.30;99.90;;;;;;4126085;28;20062;-68
2022/08/01 03:53:31;;;;;;;5.57;4.75;;;30.30;99.90;;;;;;4126484;28;20483;-69
2022/08/01 03:55:37;;;;;;;5.63;5.10;;;30.30;99.90;;;;;;4122262;28;20054;-69
2022/08/01 03:57:43;;;;;;;7.00;4.95;;;30.30;99.90;;;;;;4125671;28;20076;-71
2022/08/01 03:59:49;;;;;;;5.25;4.60;;;30.30;99.90;;;;;;4125091;28;20042;-70
2022/08/01 04:01:54;;;;;;;27.90;9.90;;;30.40;99.90;;;;;;4129177;28;20054;-72
2022/08/01 04:04:04;;;;;;;21.70;10.20;;;30.30;99.90;;;;;;4126737;28;20046;-71
2022/08/01 04:06:10;;;;;;;10.38;6.13;;;30.40;99.90;;;;;;4126441;28;20057;-71
2022/08/01 04:08:14;;;;;;;9.98;6.32;;;30.40;99.90;;;;;;4125449;28;20056;-71
2022/08/01 04:10:19;;;;;;;7.32;5.03;;;30.50;99.90;;;;;;4127284;28;20058;-71
2022/08/01 04:12:23;;;;;;;7.30;5.05;;;30.50;99.90;;;;;;4126382;28;20517;-71
2022/08/01 04:14:28;;;;;;;5.90;4.78;;;30.50;99.90;;;;;;4126655;28;20046;-70
2022/08/01 04:16:34;;;;;;;5.20;4.68;;;30.60;99.90;;;;;;4126055;28;20062;-71
2022/08/01 04:18:39;;;;;;;5.25;4.75;;;30.60;99.90;;;;;;4126344;28;20066;-70
2022/08/01 04:20:43;;;;;;;5.32;4.82;;;30.70;99.90;;;;;;4126964;28;20108;-71
2022/08/01 04:22:50;;;;;;;5.38;4.82;;;30.80;99.90;;;;;;4131530;28;20132;-72
2022/08/01 04:24:56;;;;;;;5.80;4.88;;;30.80;99.90;;;;;;4112920;28;20493;-71
2022/08/01 04:27:02;;;;;;;7.90;4.93;;;30.80;99.90;;;;;;4132082;28;20543;-70
2022/08/01 04:29:06;;;;;;;7.03;4.72;;;30.90;99.90;;;;;;4131859;28;20421;-70
2022/08/01 04:31:13;;;;;;;4.82;4.43;;;30.90;99.90;;;;;;4163263;28;20048;-71
2022/08/01 04:33:19;;;;;;;5.05;4.55;;;30.90;99.90;;;;;;4130055;28;20145;-71
2022/08/01 04:35:26;;;;;;;5.05;4.45;;;30.90;99.90;;;;;;4131762;28;20085;-71
2022/08/01 04:37:52;;;;;;;5.68;5.10;;;30.90;99.90;;;;;;4113405;28;20075;-71
2022/08/01 04:39:57;;;;;;;5.13;4.63;;;30.80;99.90;;;;;;4113164;28;20055;-71
2022/08/01 04:42:05;;;;;;;5.07;4.30;;;30.90;99.90;;;;;;4098279;28;20053;-71
2022/08/01 04:44:10;;;;;;;6.13;4.80;;;31.00;99.90;;;;;;4111978;28;20070;-71
2022/08/01 04:46:15;;;;;;;4.85;4.43;;;31.00;99.90;;;;;;4112957;28;20078;-71
2022/08/01 04:48:24;;;;;;;5.13;4.38;;;31.10;99.90;;;;;;4097533;28;20047;-71
2022/08/01 04:50:31;;;;;;;5.25;4.75;;;31.10;99.90;;;;;;4112950;28;20090;-71
2022/08/01 04:52:37;;;;;;;5.18;4.60;;;31.10;99.90;;;;;;4113419;28;20646;-73
2022/08/01 04:54:46;;;;;;;5.10;4.40;;;31.10;99.90;;;;;;4109687;28;20157;-71
2022/08/01 04:56:54;;;;;;;5.38;4.82;;;31.10;99.90;;;;;;4113389;28;20093;-72
2022/08/01 05:01:24;;;;;;;6.68;4.35;;;31.10;99.90;;;;;;4113266;28;20054;-71
2022/08/01 05:03:30;;;;;;;5.72;4.63;;;31.10;99.90;;;;;;4097341;28;20138;-71
2022/08/01 05:05:40;;;;;;;7.40;5.15;;;31.10;99.90;;;;;;4101775;28;20161;-71
2022/08/01 05:07:45;;;;;;;4.72;4.32;;;31.00;99.90;;;;;;4081665;29;20055;-71
2022/08/01 05:09:50;;;;;;;5.07;4.43;;;31.10;99.90;;;;;;4119433;28;20058;-71
2022/08/01 05:11:58;;;;;;;4.75;4.25;;;31.10;99.90;;;;;;4113278;28;20055;-72
2022/08/01 05:14:06;;;;;;;4.65;4.22;;;31.10;99.90;;;;;;4112838;28;20668;-72
2022/08/01 05:16:12;;;;;;;6.30;4.53;;;31.10;99.90;;;;;;4125141;28;20108;-71
2022/08/01 05:18:16;;;;;;;4.93;4.30;;;31.10;99.90;;;;;;4131015;28;20413;-71
2022/08/01 05:20:30;;;;;;;4.38;3.97;;;31.20;99.90;;;;;;4131383;28;20050;-71
2022/08/01 05:22:37;;;;;;;4.70;4.30;;;31.20;99.90;;;;;;4130522;28;20045;-71
2022/08/01 05:24:42;;;;;;;5.38;4.90;;;31.30;99.90;;;;;;4131445;28;20052;-71
2022/08/01 05:26:49;;;;;;;5.22;4.72;;;31.30;99.90;;;;;;4130182;28;20224;-71
2022/08/01 05:28:54;;;;;;;6.47;4.93;;;31.20;99.90;;;;;;4130217;28;20138;-70
2022/08/01 05:30:59;;;;;;;5.60;4.63;;;31.20;99.90;;;;;;4115640;28;20050;-70
2022/08/01 05:33:03;;;;;;;5.00;4.53;;;31.20;99.90;;;;;;4125453;28;20395;-71
2022/08/01 05:35:08;;;;;;;6.05;4.80;;;31.10;99.90;;;;;;4115239;28;20054;-69
2022/08/01 05:37:13;;;;;;;6.28;4.78;;;31.00;99.90;;;;;;4124890;28;20522;-70
2022/08/01 05:39:19;;;;;;;5.50;4.70;;;31.00;99.90;;;;;;4123099;28;20519;-70
2022/08/01 05:41:26;;;;;;;5.85;5.25;;;30.90;99.90;;;;;;4120981;28;20054;-70
2022/08/01 05:43:35;;;;;;;5.50;5.00;;;30.90;99.90;;;;;;4122502;28;20100;-69
2022/08/01 05:45:41;;;;;;;6.65;4.90;;;31.00;99.90;;;;;;4126865;28;20050;-70
2022/08/01 05:47:46;;;;;;;7.63;5.00;;;31.10;99.90;;;;;;4127461;28;20606;-70
2022/08/01 05:49:53;;;;;;;5.15;4.60;;;31.30;99.90;;;;;;4124837;28;20074;-70
2022/08/01 05:51:58;;;;;;;5.18;4.63;;;31.30;99.90;;;;;;4127071;28;20070;-70
2022/08/01 05:54:03;;;;;;;7.03;4.70;;;31.40;99.90;;;;;;4157658;28;20111;-70
2022/08/01 05:56:10;;;;;;;6.28;4.85;;;31.40;99.90;;;;;;4126670;28;20042;-70
2022/08/01 05:58:17;;;;;;;5.07;4.57;;;31.40;99.90;;;;;;4127379;28;20050;-70
2022/08/01 06:00:21;;;;;;;5.20;4.70;;;31.40;99.90;;;;;;4125809;28;20050;-70
2022/08/01 06:02:28;;;;;;;8.30;4.75;;;31.60;99.90;;;;;;4123934;28;20058;-70
2022/08/01 06:04:35;;;;;;;5.90;4.93;;;31.60;99.90;;;;;;4126174;28;20146;-69
2022/08/01 06:06:39;;;;;;;5.75;4.80;;;31.70;99.90;;;;;;4126606;28;20441;-70
2022/08/01 06:08:47;;;;;;;5.28;4.50;;;31.90;99.90;;;;;;4131197;28;20080;-70
2022/08/01 06:10:55;;;;;;;6.07;5.47;;;32.00;99.90;;;;;;4128507;28;20046;-70
2022/08/01 06:13:02;;;;;;;5.50;4.97;;;31.90;99.90;;;;;;4127889;28;20061;-70
2022/08/01 06:15:09;;;;;;;6.20;4.60;;;32.00;99.90;;;;;;4127419;28;20050;-69
2022/08/01 06:17:14;;;;;;;5.30;4.80;;;32.10;99.90;;;;;;4126322;28;20054;-70
2022/08/01 06:19:19;;;;;;;5.25;4.60;;;32.10;99.90;;;;;;4127198;28;20100;-70
2022/08/01 06:21:25;;;;;;;5.47;4.97;;;32.10;99.90;;;;;;4126586;28;20585;-69
2022/08/01 06:23:31;;;;;;;5.28;4.78;;;32.00;99.90;;;;;;4127477;28;20054;-69
2022/08/01 06:25:36;;;;;;;6.88;4.90;;;31.80;99.90;;;;;;4127009;28;20046;-70
2022/08/01 06:27:43;;;;;;;5.35;4.85;;;31.60;99.90;;;;;;4125907;28;20069;-70
2022/08/01 06:29:53;;;;;;;7.55;5.07;;;31.60;99.90;;;;;;4124077;28;20506;-70
2022/08/01 06:31:57;;;;;;;5.80;5.20;;;31.60;99.90;;;;;;4127101;28;20066;-70
2022/08/01 06:34:04;;;;;;;5.38;4.88;;;31.60;99.90;;;;;;4127260;28;20627;-69
2022/08/01 06:36:10;;;;;;;6.05;5.10;;;31.50;99.90;;;;;;4125813;28;20625;-70
2022/08/01 06:38:16;;;;;;;6.10;5.30;;;31.50;99.90;;;;;;4127386;28;20093;-70
2022/08/01 06:40:22;;;;;;;6.80;4.93;;;31.50;99.90;;;;;;4126962;28;20050;-70
2022/08/01 06:42:31;;;;;;;6.30;5.10;;;31.40;99.90;;;;;;4125444;28;20054;-70
2022/08/01 06:44:37;;;;;;;5.70;5.05;;;31.40;99.90;;;;;;4129872;28;20047;-69
2022/08/01 06:46:43;;;;;;;6.03;5.43;;;31.50;99.90;;;;;;4125482;28;20449;-70
2022/08/01 06:48:50;;;;;;;5.78;5.13;;;31.50;99.90;;;;;;4127522;28;20578;-71
2022/08/01 06:51:07;;;;;;;5.32;4.80;;;31.50;99.90;;;;;;4126656;28;20118;-70
2022/08/01 06:53:14;;;;;;;6.88;4.95;;;31.70;99.90;;;;;;4127722;28;20077;-70
2022/08/01 06:55:21;;;;;;;5.68;5.18;;;31.80;99.90;;;;;;4125048;28;20700;-70
2022/08/01 06:57:25;;;;;;;6.55;5.68;;;31.80;99.90;;;;;;4126339;28;20145;-70
2022/08/01 06:59:32;;;;;;;5.35;4.85;;;32.00;99.90;;;;;;4127320;28;20043;-71
2022/08/01 07:01:38;;;;;;;5.65;5.10;;;32.20;99.90;;;;;;4109041;28;20150;-71
2022/08/01 07:03:43;;;;;;;4.95;4.43;;;32.10;99.90;;;;;;4111225;28;20050;-70
2022/08/01 07:05:56;;;;;;;5.45;4.95;;;32.10;99.90;;;;;;4120859;28;20053;-70
2022/08/01 07:08:03;;;;;;;6.28;4.88;;;32.30;99.90;;;;;;4125834;28;20054;-70
2022/08/01 07:10:08;;;;;;;5.80;5.13;;;32.50;99.90;;;;;;4126690;28;20050;-70
2022/08/01 07:12:15;;;;;;;6.30;5.10;;;32.60;99.90;;;;;;4126269;28;20054;-70
2022/08/01 07:14:21;;;;;;;8.27;4.97;;;32.70;99.90;;;;;;4126852;28;20054;-70
2022/08/01 07:16:26;;;;;;;6.35;4.82;;;32.50;99.90;;;;;;4124995;28;20429;-70
2022/08/01 07:18:32;;;;;;;5.55;4.80;;;32.50;99.90;;;;;;4126539;28;20070;-69
2022/08/01 07:20:39;;;;;;;6.28;5.47;;;32.30;99.90;;;;;;4125990;28;20050;-70
2022/08/01 07:22:55;;;;;;;5.93;5.03;;;32.30;99.90;;;;;;4126629;28;20054;-70
2022/08/01 07:25:03;;;;;;;5.70;4.55;;;32.10;99.90;;;;;;4126483;28;20042;-71
2022/08/01 07:27:09;;;;;;;5.28;4.78;;;32.10;99.90;;;;;;4125662;28;20112;-72
2022/08/01 07:29:26;;;;;;;4.95;4.45;;;32.10;99.90;;;;;;4126768;28;20109;-71
2022/08/01 07:31:32;;;;;;;7.93;4.47;;;32.10;99.90;;;;;;4125918;28;20133;-71
2022/08/01 07:33:38;;;;;;;7.30;5.03;;;32.10;99.90;;;;;;4126550;28;20046;-71
2022/08/01 07:35:51;;;;;;;5.55;5.05;;;32.00;99.90;;;;;;4125291;28;20747;-70
2022/08/01 07:37:58;;;;;;;5.82;5.10;;;32.00;99.90;;;;;;4124965;28;20089;-71
2022/08/01 07:40:05;;;;;;;5.22;4.32;;;32.00;99.90;;;;;;4127594;28;20112;-69
2022/08/01 07:42:09;;;;;;;5.80;5.20;;;32.00;99.90;;;;;;4124776;28;20051;-71
2022/08/01 07:44:17;;;;;;;11.48;4.88;;;31.90;99.90;;;;;;4074894;29;20776;-72
2022/08/01 07:46:25;;;;;;;4.40;3.75;;;32.00;99.90;;;;;;4124426;28;20558;-72
2022/08/01 07:48:29;;;;;;;5.43;3.30;;;32.10;99.90;;;;;;4126335;28;20078;-71
2022/08/01 07:50:36;;;;;;;3.78;2.92;;;32.10;99.90;;;;;;4132299;28;20038;-72
2022/08/01 07:52:50;;;;;;;3.53;2.72;;;32.00;99.90;;;;;;4136037;28;20652;-71
2022/08/01 07:54:56;;;;;;;2.58;2.38;;;31.90;99.90;;;;;;4133769;28;20128;-69
2022/08/01 07:57:03;;;;;;;2.67;2.20;;;31.80;99.90;;;;;;4129967;28;20093;-70
2022/08/01 07:59:09;;;;;;;4.68;2.83;;;31.90;99.90;;;;;;4135288;28;20069;-70
2022/08/01 08:01:14;;;;;;;2.25;2.03;;;32.10;99.90;;;;;;4129771;28;20053;-70
2022/08/01 08:03:18;;;;;;;2.40;2.03;;;32.30;99.90;;;;;;4125788;28;20449;-70
2022/08/01 08:05:25;;;;;;;2.80;2.50;;;32.50;99.90;;;;;;4125020;28;20058;-70
2022/08/01 08:07:50;;;;;;;2.70;2.08;;;32.60;99.50;;;;;;4123518;28;20512;-70
2022/08/01 08:09:56;;;;;;;3.65;2.28;;;32.80;98.90;;;;;;4125728;28;20050;-70
2022/08/01 08:12:03;;;;;;;3.10;2.00;;;32.80;98.70;;;;;;4124747;28;20059;-70
2022/08/01 08:14:08;;;;;;;2.88;2.00;;;33.00;98.30;;;;;;4125684;28;20161;-70
2022/08/01 08:16:13;;;;;;;2.20;2.00;;;33.00;98.30;;;;;;4123304;28;20043;-70
2022/08/01 08:18:18;;;;;;;3.85;1.77;;;33.00;98.20;;;;;;4124380;28;20038;-71
2022/08/01 08:20:24;;;;;;;2.95;1.63;;;33.00;98.90;;;;;;4123387;28;20046;-70
2022/08/01 08:22:31;;;;;;;5.25;2.00;;;33.00;98.40;;;;;;4125021;28;20050;-70
2022/08/01 08:24:37;;;;;;;2.50;1.90;;;33.10;98.30;;;;;;4125048;28;20050;-70
2022/08/01 08:26:48;;;;;;;;;;;33.10;98.20;;;;;;4121789;28;20115;-70
2022/08/01 08:28:55;;;;;;;2.63;1.80;;;33.10;97.60;;;;;;4124708;28;19926;-71
2022/08/01 08:31:02;;;;;;;2.05;1.60;;;33.20;97.90;;;;;;4124574;28;20042;-71
2022/08/01 08:33:06;;;;;;;2.53;1.80;;;33.20;97.70;;;;;;4125282;28;20054;-71
2022/08/01 08:35:15;;;;;;;3.08;1.60;;;33.20;96.80;;;;;;4124062;28;20045;-70
2022/08/01 08:37:40;;;;;;;4.05;1.70;;;33.20;96.50;;;;;;4108575;28;20633;-71
2022/08/01 08:39:51;;;;;;;3.08;1.52;;;33.20;96.10;;;;;;4109251;28;20051;-71
2022/08/01 08:42:01;;;;;;;1.92;1.40;;;33.20;96.60;;;;;;4122563;28;20072;-72
2022/08/01 08:44:10;;;;;;;3.50;1.47;;;33.30;96.20;;;;;;4154938;28;20081;-71
2022/08/01 08:46:15;;;;;;;2.10;1.30;;;33.30;96.40;;;;;;4124693;28;20877;-72
2022/08/01 08:48:30;;;;;;;1.77;1.50;;;33.30;96.10;;;;;;4118018;28;20039;-71
2022/08/01 08:50:37;;;;;;;2.28;1.67;;;33.20;96.40;;;;;;4124971;28;20054;-71
2022/08/01 08:52:42;;;;;;;1.90;1.30;;;33.30;96.10;;;;;;4130347;28;20572;-72
2022/08/01 08:54:50;;;;;;;2.63;1.48;;;33.30;96.00;;;;;;4128043;28;20054;-72
2022/08/01 08:56:57;;;;;;;1.88;1.30;;;33.30;96.00;;;;;;4123825;28;20050;-72
2022/08/01 08:59:02;;;;;;;2.55;1.40;;;33.40;96.00;;;;;;4128332;28;20708;-73
2022/08/01 09:01:09;;;;;;;3.33;1.38;;;33.30;95.50;;;;;;4127780;28;20081;-72
2022/08/01 09:03:17;;;;;;;1.38;1.20;;;33.40;95.60;;;;;;4128566;28;20050;-72
2022/08/01 09:05:27;;;;;;;1.75;1.00;;;33.40;95.60;;;;;;4127603;28;20042;-72
2022/08/01 09:07:41;;;;;;;3.80;1.20;;;33.40;95.00;;;;;;4128454;28;20433;-72
2022/08/01 09:09:49;;;;;;;3.25;1.30;;;33.40;95.10;;;;;;4131222;28;20605;-72
2022/08/01 09:11:55;;;;;;;4.47;1.13;;;33.40;95.50;;;;;;4129658;28;20054;-72
2022/08/01 09:14:23;;;;;;;3.65;1.10;;;33.30;95.10;;;;;;4131486;28;20058;-73
2022/08/01 09:16:30;;;;;;;1.80;1.23;;;33.30;94.70;;;;;;4123525;28;20093;-71
2022/08/01 09:18:39;;;;;;;1.75;1.00;;;33.20;94.90;;;;;;4131039;28;20035;-71
2022/08/01 09:20:43;;;;;;;2.15;1.17;;;33.20;95.10;;;;;;4133661;28;20120;-72
2022/08/01 09:22:50;;;;;;;1.98;1.10;;;33.20;95.40;;;;;;4138498;28;20042;-72
2022/08/01 09:25:07;;;;;;;2.22;1.33;;;33.10;95.20;;;;;;4135556;28;20051;-73
2022/08/01 09:27:23;;;;;;;1.65;1.30;;;33.20;95.30;;;;;;4107675;28;20050;-73
2022/08/01 09:29:31;;;;;;;1.27;1.17;;;33.20;95.50;;;;;;4138322;28;20035;-70
2022/08/01 09:31:45;;;;;;;4.15;1.73;;;33.30;94.90;;;;;;4137023;28;20839;-67
2022/08/01 09:33:56;;;;;;;1.92;1.17;;;33.30;95.20;;;;;;4137254;28;20043;-71
2022/08/01 09:36:03;;;;;;;2.05;1.17;;;33.30;94.90;;;;;;4134372;28;20073;-71
2022/08/01 09:38:19;;;;;;;3.78;1.77;;;33.20;94.30;;;;;;4135033;28;20089;-68
2022/08/01 09:40:25;;;;;;;1.50;1.30;;;33.30;94.30;;;;;;4137043;28;20566;-68
2022/08/01 09:42:32;;;;;;;2.70;1.23;;;33.30;94.60;;;;;;4138311;28;20116;-68
2022/08/01 09:44:43;;;;;;;3.20;1.50;;;33.30;94.50;;;;;;4134881;28;20092;-68
2022/08/01 09:46:57;;;;;;;1.73;1.40;;;33.30;94.90;;;;;;4132755;28;20133;-70
2022/08/01 09:49:11;;;;;;;2.58;1.63;;;33.30;94.70;;;;;;4137051;28;20493;-69
2022/08/01 09:51:22;;;;;;;1.92;1.40;;;33.30;94.60;;;;;;4137884;28;20100;-69
2022/08/01 09:53:48;;;;;;;1.38;1.27;;;33.30;94.40;;;;;;4139927;28;20038;-67
2022/08/01 09:55:56;;;;;;;1.75;1.10;;;33.30;94.10;;;;;;4140852;28;20404;-68
2022/08/01 09:58:01;;;;;;;2.17;1.30;;;33.30;94.10;;;;;;4136478;28;20065;-68
2022/08/01 10:00:08;;;;;;;2.00;1.38;;;33.20;93.80;;;;;;4138678;28;20050;-68
2022/08/01 10:02:36;;;;;;;3.88;1.48;;;33.10;94.10;;;;;;4116612;28;20047;-68
2022/08/01 10:04:49;;;;;;;1.90;1.40;;;33.10;94.10;;;;;;4133752;28;20120;-68
2022/08/01 10:07:07;;;;;;;2.17;1.15;;;33.10;93.40;;;;;;4099484;28;20047;-69
2022/08/01 10:09:14;;;;;;;8.00;1.40;;;32.80;93.60;;;;;;4138209;28;20516;-69
2022/08/01 10:11:21;;;;;;;2.47;1.35;;;33.00;93.30;;;;;;4130848;28;20062;-69
2022/08/01 10:13:39;;;;;;;1.60;1.30;;;32.90;93.60;;;;;;4131288;28;20053;-69
2022/08/01 10:15:46;;;;;;;2.08;1.42;;;33.00;93.50;;;;;;4129840;28;20057;-68
2022/08/01 10:17:54;;;;;;;2.90;1.40;;;33.00;93.30;;;;;;4130284;28;20517;-68
2022/08/01 10:19:59;;;;;;;6.03;1.40;;;33.00;93.50;;;;;;4130124;28;20078;-69
2022/08/01 10:22:08;;;;;;;2.13;1.40;;;32.90;93.70;;;;;;4130026;28;20053;-69
2022/08/01 10:24:13;;;;;;;1.45;1.23;;;32.90;93.50;;;;;;4130652;28;20053;-69
2022/08/01 10:26:21;;;;;;;1.38;1.20;;;32.90;93.50;;;;;;4129161;28;20045;-69
2022/08/01 10:28:30;;;;;;;3.00;1.40;;;32.80;93.90;;;;;;4130887;28;20554;-69
2022/08/01 10:30:35;;;;;;;3.17;1.60;;;32.80;93.90;;;;;;4129464;28;20615;-69
2022/08/01 10:32:42;;;;;;;2.50;1.23;;;32.80;94.40;;;;;;4130595;28;20117;-69
2022/08/01 10:34:55;;;;;;;2.92;1.85;;;32.70;94.50;;;;;;4134478;28;20408;-68
2022/08/01 10:37:00;;;;;;;2.30;1.40;;;32.60;94.70;;;;;;4129614;28;20050;-68
2022/08/01 10:39:10;;;;;;;1.90;1.38;;;32.60;94.50;;;;;;4130009;28;20536;-69
2022/08/01 10:41:16;;;;;;;4.20;1.50;;;32.50;94.60;;;;;;4129401;28;20068;-68
2022/08/01 10:43:21;;;;;;;1.83;1.50;;;32.40;94.60;;;;;;4129198;28;20162;-69
2022/08/01 10:45:28;;;;;;;2.92;1.38;;;32.30;94.80;;;;;;4129584;28;20042;-70
2022/08/01 10:47:43;;;;;;;2.33;1.40;;;32.30;95.10;;;;;;4129138;28;20050;-69
2022/08/01 10:50:07;;;;;;;4.20;1.70;;;32.30;95.30;;;;;;4129421;28;20075;-69
2022/08/01 10:52:18;;;;;;;2.53;1.63;;;32.20;95.40;;;;;;4135621;28;20046;-69
2022/08/01 10:54:27;;;;;;;3.70;2.20;;;31.90;95.70;;;;;;4130476;28;20062;-70
2022/08/01 10:56:46;;;;;;;3.20;2.25;;;31.90;95.90;;;;;;4128031;28;20159;-71
2022/08/01 10:59:02;;;;;;;3.55;1.90;;;32.00;96.20;;;;;;4130462;28;20057;-70
2022/08/01 11:01:33;;;;;;;4.32;1.92;;;32.10;96.50;;;;;;4128793;28;20038;-72
2022/08/01 11:03:43;;;;;;;4.57;2.00;;;32.10;96.50;;;;;;4132652;28;20045;-71
2022/08/01 11:06:03;;;;;;;4.93;1.77;;;32.00;96.40;;;;;;4100178;28;20051;-70
2022/08/01 11:08:20;;;;;;;2.50;2.05;;;32.00;96.30;;;;;;4134944;28;20045;-71
2022/08/01 11:10:33;;;;;;;2.53;1.73;;;32.10;96.40;;;;;;4136150;28;20081;-70
2022/08/01 11:12:40;;;;;;;4.07;1.67;;;32.00;96.50;;;;;;4131771;28;20038;-70